Terminal Aerodrome Forecast
Issued by NWS

Home | Current Version | Previous Version | Text Only | Print | Product List | Glossary On
Versions: 1 2 3 4 5 6 7 8 9 10 11 12 13
832
FTUS43 KMPX 212320
TAFRWF
TAF
KRWF 212320Z 2200/2224 23007KT P6SM SCT100
     FM221600 29010KT P6SM BKN100=

USA.gov is the U.S. government's official web portal to all federal, state and local government web resources and services.